Terminal Aerodrome Forecast
Issued by NWS

Home | Current Version | Previous Version | Text Only | Print | Product List | Glossary On
Versions: 1 2 3 4 5 6 7 8 9 10 11 12 13 14 15 16 17 18 19 20 21 22 23
000
FTUS42 KGSP 011200 RRA
TAFHKY
TAF
KHKY 011225Z 0112/0212 01005KT 4SM -RA BR FEW019 OVC060
     FM011400 12005KT 5SM -SHRA OVC014
      TEMPO 0114/0118 -SHRA BKN035
     FM012000 10005KT 6SM -SHRA VCTS OVC022CB
     FM020300 09004KT 4SM -SHRA BR OVC009=

USA.gov is the U.S. government's official web portal to all federal, state and local government web resources and services.